Time;durP1;ratioP1;P1;durP2;ratioP2;P2;SDS_P1;SDS_P2;PMS_P1;PMS_P2;Temp;Humidity;BMP_temperature;BMP_pressure;BME280_temperature;BME280_humidity;BME280_pressure;Samples;Min_cycle;Max_cycle;Signal;HPM_P1;HPM_P2
2021/05/25 00:00:10;;;;;;;3.23;1.57;;;12.60;99.90;;;;;;5012064;28;20306;-80
2021/05/25 00:02:40;;;;;;;2.97;1.40;;;12.60;99.90;;;;;;5027537;28;20248;-81
2021/05/25 00:05:12;;;;;;;2.17;1.60;;;12.50;99.90;;;;;;5026763;28;20232;-81
2021/05/25 00:07:40;;;;;;;3.70;1.73;;;12.50;99.90;;;;;;5007511;28;20330;-81
2021/05/25 00:10:10;;;;;;;2.70;1.73;;;12.40;99.90;;;;;;5012342;28;20618;-81
2021/05/25 00:12:38;;;;;;;3.37;1.90;;;12.40;99.90;;;;;;5003854;28;20228;-81
2021/05/25 00:15:10;;;;;;;4.57;1.80;;;12.40;99.90;;;;;;5012068;28;20745;-81
2021/05/25 00:17:38;;;;;;;3.00;2.07;;;12.30;99.90;;;;;;4992228;28;20240;-81
2021/05/25 00:20:11;;;;;;;2.30;2.00;;;12.30;99.90;;;;;;4990998;28;20241;-81
2021/05/25 00:22:39;;;;;;;2.27;1.63;;;12.30;99.90;;;;;;4991900;28;20253;-80
2021/05/25 00:25:09;;;;;;;2.30;1.53;;;12.20;99.90;;;;;;5005403;28;20659;-79
2021/05/25 00:27:38;;;;;;;2.17;1.80;;;12.20;99.90;;;;;;5006021;28;20241;-80
2021/05/25 00:30:09;;;;;;;4.13;1.67;;;12.10;99.90;;;;;;5011167;28;20248;-81
2021/05/25 00:32:38;;;;;;;2.87;1.80;;;12.10;99.90;;;;;;5011710;28;20256;-80
2021/05/25 00:35:08;;;;;;;1.97;1.77;;;12.10;99.90;;;;;;5011733;28;20294;-81
2021/05/25 00:37:36;;;;;;;2.17;1.90;;;12.10;99.90;;;;;;4991796;28;20241;-81
2021/05/25 00:40:07;;;;;;;4.00;2.10;;;12.00;99.90;;;;;;5022862;28;20235;-80
2021/05/25 00:42:35;;;;;;;3.10;2.00;;;12.00;99.90;;;;;;5011879;28;20259;-81
2021/05/25 00:45:08;;;;;;;2.27;1.80;;;12.00;99.90;;;;;;5011043;28;20250;-80
2021/05/25 00:47:39;;;;;;;2.83;1.90;;;11.90;99.90;;;;;;5040252;28;20247;-79
2021/05/25 00:50:11;;;;;;;2.93;1.80;;;11.90;99.90;;;;;;5012104;28;20236;-80
2021/05/25 00:52:43;;;;;;;4.00;1.93;;;11.90;99.90;;;;;;5011812;28;20246;-80
2021/05/25 00:55:16;;;;;;;4.10;2.27;;;11.80;99.90;;;;;;5011248;28;20589;-81
2021/05/25 00:57:45;;;;;;;2.67;2.10;;;11.80;99.90;;;;;;5028850;28;20242;-80
2021/05/25 01:00:15;;;;;;;3.03;1.90;;;11.70;99.90;;;;;;5011168;28;20334;-81
2021/05/25 01:02:45;;;;;;;3.43;2.20;;;11.70;99.90;;;;;;5029786;28;20608;-81
2021/05/25 01:05:16;;;;;;;3.43;2.20;;;11.70;99.90;;;;;;5031232;28;20294;-81
2021/05/25 01:07:45;;;;;;;4.40;2.20;;;11.60;99.90;;;;;;5031447;28;20609;-80
2021/05/25 01:10:16;;;;;;;3.57;2.10;;;11.60;99.90;;;;;;5013978;28;20252;-81
2021/05/25 01:12:54;;;;;;;2.10;1.90;;;11.60;99.90;;;;;;5011127;28;20261;-79
2021/05/25 01:15:23;;;;;;;2.40;2.20;;;11.70;99.90;;;;;;5013417;28;20638;-81
2021/05/25 01:17:54;;;;;;;2.30;2.10;;;11.70;99.90;;;;;;5021126;28;20239;-81
2021/05/25 01:20:28;;;;;;;2.20;2.00;;;11.60;99.90;;;;;;5011153;28;20239;-79
2021/05/25 01:22:57;;;;;;;2.37;2.00;;;11.50;99.90;;;;;;5011606;28;20238;-81
2021/05/25 01:25:26;;;;;;;2.20;2.00;;;11.50;99.90;;;;;;5010646;28;20247;-81
2021/05/25 01:27:58;;;;;;;4.40;2.83;;;11.50;99.90;;;;;;5011386;28;20809;-81
2021/05/25 01:30:30;;;;;;;2.40;1.97;;;11.50;99.90;;;;;;5011098;28;20259;-81
2021/05/25 01:32:59;;;;;;;3.33;2.10;;;11.60;99.90;;;;;;5030804;28;20706;-80
2021/05/25 01:35:29;;;;;;;2.80;2.00;;;11.60;99.90;;;;;;5024488;28;20239;-80
2021/05/25 01:37:59;;;;;;;1.80;1.70;;;11.60;99.90;;;;;;5060288;28;20319;-80
2021/05/25 01:40:28;;;;;;;3.07;2.23;;;11.60;99.90;;;;;;5013460;28;20242;-80
2021/05/25 01:42:56;;;;;;;2.27;2.07;;;11.60;99.90;;;;;;5008689;28;20243;-81
2021/05/25 01:45:30;;;;;;;4.63;2.20;;;11.60;99.90;;;;;;5009054;28;20242;-81
2021/05/25 01:48:02;;;;;;;2.10;1.90;;;11.60;99.90;;;;;;5010643;28;20305;-81
2021/05/25 01:50:31;;;;;;;3.83;2.50;;;11.70;99.90;;;;;;4996970;28;20303;-81
2021/05/25 01:53:04;;;;;;;4.13;2.17;;;11.70;99.90;;;;;;5013492;28;20632;-80
2021/05/25 01:55:35;;;;;;;2.27;2.07;;;11.70;99.90;;;;;;5014976;28;20737;-80
2021/05/25 01:58:07;;;;;;;2.40;1.97;;;11.70;99.90;;;;;;5027223;28;20274;-80
2021/05/25 02:00:36;;;;;;;2.80;2.33;;;11.60;99.90;;;;;;5031621;28;20808;-81
2021/05/25 02:03:05;;;;;;;2.63;2.30;;;11.60;99.90;;;;;;5029742;28;20271;-80
2021/05/25 02:05:35;;;;;;;3.90;2.20;;;11.60;99.90;;;;;;5014718;28;20355;-80
2021/05/25 02:08:07;;;;;;;2.37;2.17;;;11.60;99.90;;;;;;5030543;28;20623;-80
2021/05/25 02:10:38;;;;;;;3.07;2.30;;;11.60;99.90;;;;;;5014280;28;20243;-80
2021/05/25 02:13:09;;;;;;;2.47;2.27;;;11.60;99.90;;;;;;5014668;28;20232;-80
2021/05/25 02:15:38;;;;;;;2.53;2.33;;;11.50;99.90;;;;;;5013665;28;20239;-81
2021/05/25 02:18:09;;;;;;;4.57;2.33;;;11.60;99.90;;;;;;5015092;28;20314;-79
2021/05/25 02:20:39;;;;;;;2.73;2.20;;;11.60;99.90;;;;;;5018196;28;20241;-81
2021/05/25 02:23:08;;;;;;;2.37;2.13;;;11.60;99.90;;;;;;5033204;28;20595;-80
2021/05/25 02:25:36;;;;;;;2.50;2.30;;;11.50;99.90;;;;;;5033768;28;20239;-81
2021/05/25 02:28:06;;;;;;;3.30;2.20;;;11.50;99.90;;;;;;5028118;28;20299;-81
2021/05/25 02:30:35;;;;;;;3.63;2.03;;;11.40;99.90;;;;;;5015008;28;20237;-79
2021/05/25 02:33:07;;;;;;;2.33;2.13;;;11.40;99.90;;;;;;5033108;28;20259;-80
2021/05/25 02:35:36;;;;;;;4.00;2.13;;;11.40;99.90;;;;;;5034411;28;20238;-80
2021/05/25 02:38:04;;;;;;;2.30;2.10;;;11.40;99.90;;;;;;5028445;28;20251;-81
2021/05/25 02:40:34;;;;;;;2.40;2.20;;;11.30;99.90;;;;;;5017433;28;20705;-79
2021/05/25 02:43:03;;;;;;;3.50;2.47;;;11.30;99.90;;;;;;5016961;28;20710;-80
2021/05/25 02:45:32;;;;;;;2.70;2.37;;;11.30;99.90;;;;;;5015690;28;20232;-79
2021/05/25 02:48:00;;;;;;;2.53;2.33;;;11.20;99.90;;;;;;5017978;28;20238;-80
2021/05/25 02:50:28;;;;;;;2.60;2.40;;;11.20;99.90;;;;;;5014544;28;20592;-80
2021/05/25 02:52:56;;;;;;;3.43;2.80;;;11.20;99.90;;;;;;5014374;28;20239;-79
2021/05/25 02:55:26;;;;;;;4.07;2.50;;;11.20;99.90;;;;;;5014108;28;20259;-80
2021/05/25 02:57:56;;;;;;;3.00;2.70;;;11.10;99.90;;;;;;5013179;28;20243;-81
2021/05/25 03:00:27;;;;;;;3.13;2.63;;;11.10;99.90;;;;;;5013618;28;20240;-80
2021/05/25 03:02:56;;;;;;;3.63;3.00;;;11.10;99.90;;;;;;5013491;28;20458;-81
2021/05/25 03:05:25;;;;;;;3.90;3.17;;;11.00;99.90;;;;;;5013843;28;20248;-80
2021/05/25 03:07:56;;;;;;;3.50;3.00;;;11.00;99.90;;;;;;5014514;28;20238;-80
2021/05/25 03:10:28;;;;;;;3.47;3.17;;;10.90;99.90;;;;;;5013764;28;20249;-80
2021/05/25 03:12:58;;;;;;;3.67;3.30;;;10.90;99.90;;;;;;5010553;28;20227;-79
2021/05/25 03:15:29;;;;;;;4.33;3.47;;;10.90;99.90;;;;;;5011115;28;20325;-78
2021/05/25 03:17:58;;;;;;;3.50;3.20;;;10.80;99.90;;;;;;5012285;28;20245;-78
2021/05/25 03:20:27;;;;;;;3.30;3.00;;;10.90;99.90;;;;;;5011373;28;20245;-79
2021/05/25 03:22:55;;;;;;;4.73;3.70;;;10.80;99.90;;;;;;5011677;28;20266;-78
2021/05/25 03:25:24;;;;;;;3.33;3.03;;;10.80;99.90;;;;;;5011756;28;20247;-79
2021/05/25 03:27:52;;;;;;;4.70;3.40;;;10.80;99.90;;;;;;5011942;28;20585;-79
2021/05/25 03:30:24;;;;;;;3.90;3.13;;;10.70;99.90;;;;;;5027313;28;20243;-80
2021/05/25 03:32:52;;;;;;;3.73;3.23;;;10.70;99.90;;;;;;5011453;28;20261;-78
2021/05/25 03:35:24;;;;;;;3.70;3.10;;;10.70;99.90;;;;;;5026417;28;20246;-78
2021/05/25 03:37:52;;;;;;;3.77;3.17;;;10.70;99.90;;;;;;5010117;28;20276;-78
2021/05/25 03:40:21;;;;;;;3.97;3.53;;;10.80;99.90;;;;;;5009387;28;20327;-79
2021/05/25 03:42:52;;;;;;;4.23;3.50;;;10.80;99.90;;;;;;5010521;28;20238;-79
2021/05/25 03:45:23;;;;;;;3.80;3.50;;;10.80;99.90;;;;;;5011099;28;20645;-78
2021/05/25 03:47:52;;;;;;;3.97;3.50;;;10.80;99.90;;;;;;5023974;28;20239;-80
2021/05/25 03:50:21;;;;;;;3.40;3.10;;;10.90;99.90;;;;;;5011265;28;20285;-79
2021/05/25 03:52:51;;;;;;;4.43;3.40;;;10.80;99.90;;;;;;5010820;28;20733;-80
2021/05/25 03:55:29;;;;;;;3.67;3.37;;;10.90;99.90;;;;;;5011190;28;20326;-80
2021/05/25 04:00:43;;;;;;;4.00;3.17;;;10.90;99.90;;;;;;4995806;28;20824;-79
2021/05/25 04:03:11;;;;;;;4.00;3.47;;;11.00;99.90;;;;;;5011100;28;20346;-79
2021/05/25 04:05:39;;;;;;;3.90;3.50;;;11.00;99.90;;;;;;5014739;28;20234;-80
2021/05/25 04:08:09;;;;;;;4.10;3.63;;;11.00;99.90;;;;;;5029568;28;20237;-79
2021/05/25 04:10:37;;;;;;;3.60;3.17;;;11.00;99.90;;;;;;5014431;28;20327;-80
2021/05/25 04:13:05;;;;;;;3.93;3.40;;;11.00;99.90;;;;;;5012443;28;20619;-80
2021/05/25 04:15:34;;;;;;;4.67;3.30;;;11.00;99.90;;;;;;5015369;28;20716;-79
2021/05/25 04:18:03;;;;;;;4.33;3.50;;;11.00;99.90;;;;;;5032483;28;20300;-79
2021/05/25 04:20:31;;;;;;;3.37;3.07;;;11.00;99.90;;;;;;5032614;28;20336;-81
2021/05/25 04:22:59;;;;;;;3.37;3.07;;;11.00;99.90;;;;;;5032498;28;20546;-80
2021/05/25 04:25:29;;;;;;;3.73;3.40;;;11.00;99.90;;;;;;5030232;28;20242;-80
2021/05/25 04:27:56;;;;;;;3.93;3.50;;;10.90;99.90;;;;;;5032556;28;20345;-81
2021/05/25 04:30:25;;;;;;;3.90;3.50;;;10.90;99.90;;;;;;5028850;28;20248;-80
2021/05/25 04:32:53;;;;;;;4.33;3.50;;;10.90;99.90;;;;;;5011788;28;20603;-80
2021/05/25 04:35:22;;;;;;;3.20;3.00;;;10.90;99.90;;;;;;5012219;28;20314;-81
2021/05/25 04:37:51;;;;;;;3.90;3.50;;;10.90;99.90;;;;;;5015241;28;20232;-79
2021/05/25 04:40:20;;;;;;;4.43;3.20;;;10.90;99.90;;;;;;5027237;28;20680;-79
2021/05/25 04:42:48;;;;;;;4.63;3.23;;;10.90;99.90;;;;;;5011868;28;20326;-79
2021/05/25 04:45:17;;;;;;;3.80;3.40;;;10.90;99.90;;;;;;5013783;28;20242;-79
2021/05/25 04:47:45;;;;;;;4.50;3.20;;;10.80;99.90;;;;;;5032793;28;20291;-80
2021/05/25 04:50:16;;;;;;;3.27;3.00;;;10.80;99.90;;;;;;5032145;28;20291;-81
2021/05/25 04:52:45;;;;;;;4.00;3.60;;;10.90;99.90;;;;;;5012279;28;20247;-80
2021/05/25 04:55:15;;;;;;;3.50;3.20;;;10.80;99.90;;;;;;5013676;28;20284;-80
2021/05/25 04:57:49;;;;;;;3.33;3.13;;;10.80;99.90;;;;;;5020965;28;20227;-79
2021/05/25 05:00:20;;;;;;;3.83;3.53;;;10.80;99.90;;;;;;5019221;28;20252;-79
2021/05/25 05:02:49;;;;;;;3.63;3.33;;;10.80;99.90;;;;;;5012206;28;20243;-81
2021/05/25 05:05:17;;;;;;;4.13;3.83;;;10.80;99.90;;;;;;5013179;28;20867;-78
2021/05/25 05:07:47;;;;;;;3.60;3.30;;;10.80;99.90;;;;;;5011787;28;20273;-81
2021/05/25 05:10:17;;;;;;;4.10;3.80;;;10.80;99.90;;;;;;5013901;28;20962;-79
2021/05/25 05:12:46;;;;;;;4.17;3.77;;;10.90;99.90;;;;;;5013235;28;20243;-80
2021/05/25 05:15:15;;;;;;;5.10;4.57;;;10.90;99.90;;;;;;5014106;28;20231;-80
2021/05/25 05:17:44;;;;;;;4.67;4.27;;;10.80;99.90;;;;;;5032711;28;20763;-81
2021/05/25 05:20:13;;;;;;;3.80;3.50;;;10.80;99.90;;;;;;5020257;28;20243;-80
2021/05/25 05:22:44;;;;;;;4.60;4.20;;;10.80;99.90;;;;;;5035840;28;20250;-81
2021/05/25 05:25:14;;;;;;;4.50;4.10;;;10.90;99.90;;;;;;5025442;28;20238;-80
2021/05/25 05:27:42;;;;;;;4.63;4.23;;;10.90;99.90;;;;;;5028762;28;20775;-79
2021/05/25 05:30:12;;;;;;;4.50;4.20;;;11.00;99.90;;;;;;5017265;28;20891;-79
2021/05/25 05:32:40;;;;;;;4.90;4.50;;;11.00;99.90;;;;;;5016253;28;20313;-79
2021/05/25 05:35:10;;;;;;;5.23;4.83;;;11.00;99.90;;;;;;5011339;28;20542;-79
2021/05/25 05:37:38;;;;;;;5.43;4.93;;;11.10;99.90;;;;;;5014368;28;20270;-79
2021/05/25 05:40:09;;;;;;;5.13;4.67;;;11.10;99.90;;;;;;5010574;28;20714;-81
2021/05/25 05:42:57;;;;;;;5.87;5.37;;;11.10;99.90;;;;;;5010820;28;20798;-79
2021/05/25 05:45:25;;;;;;;5.43;5.00;;;11.20;99.90;;;;;;5013327;28;20239;-80
2021/05/25 05:47:56;;;;;;;6.28;5.68;;;11.20;99.90;;;;;;1375417;28;10022959;-80
2021/05/25 05:50:24;;;;;;;6.03;5.43;;;11.20;99.90;;;;;;4663159;28;10000732;-80
2021/05/25 05:52:52;;;;;;;5.97;5.47;;;11.10;99.90;;;;;;5011790;28;20342;-79
2021/05/25 05:55:21;;;;;;;5.13;4.63;;;11.10;99.90;;;;;;5010982;28;20247;-79
2021/05/25 05:57:49;;;;;;;6.40;5.80;;;11.10;99.90;;;;;;5014535;28;20250;-79
2021/05/25 06:00:18;;;;;;;5.70;5.20;;;11.10;99.90;;;;;;5015211;28;20246;-80
2021/05/25 06:02:46;;;;;;;5.53;5.03;;;11.10;99.90;;;;;;5020379;28;20258;-79
2021/05/25 06:05:14;;;;;;;5.40;5.00;;;11.10;99.90;;;;;;5014644;28;20821;-79
2021/05/25 06:07:43;;;;;;;5.50;5.00;;;11.10;99.90;;;;;;5007259;28;20254;-80
2021/05/25 06:10:13;;;;;;;5.63;4.90;;;11.10;99.90;;;;;;4981547;28;20361;-79
2021/05/25 06:12:41;;;;;;;5.70;5.20;;;11.20;99.90;;;;;;5121473;23;20258;-57
2021/05/25 06:15:11;;;;;;;5.47;5.07;;;11.30;99.90;;;;;;5026256;28;20242;-57
2021/05/25 06:17:39;;;;;;;5.93;5.33;;;11.20;99.90;;;;;;5048618;28;20573;-56
2021/05/25 06:20:09;;;;;;;6.30;5.70;;;11.20;99.90;;;;;;5042892;28;20616;-57
2021/05/25 06:22:37;;;;;;;5.90;5.13;;;11.20;99.90;;;;;;5035541;28;20679;-56
2021/05/25 06:25:07;;;;;;;6.07;5.40;;;11.30;99.90;;;;;;5044149;28;20307;-56
2021/05/25 06:27:36;;;;;;;5.20;4.70;;;11.30;99.90;;;;;;5054740;28;20238;-57
2021/05/25 06:30:10;;;;;;;5.90;5.30;;;11.40;99.90;;;;;;5045865;28;20704;-58
2021/05/25 06:32:39;;;;;;;5.47;5.07;;;11.50;99.90;;;;;;5047312;28;20571;-58
2021/05/25 06:35:09;;;;;;;6.00;5.50;;;11.50;99.90;;;;;;5044208;28;20297;-58
2021/05/25 06:37:38;;;;;;;5.57;5.17;;;11.60;99.90;;;;;;5033418;28;20396;-57
2021/05/25 06:40:11;;;;;;;5.20;4.80;;;11.70;99.90;;;;;;5049448;28;20775;-58
2021/05/25 06:42:39;;;;;;;5.37;4.87;;;11.90;99.90;;;;;;5045472;28;20246;-55
2021/05/25 06:45:11;;;;;;;5.30;4.80;;;12.00;99.90;;;;;;5047611;28;21231;-57
2021/05/25 06:47:39;;;;;;;4.90;4.50;;;12.10;99.90;;;;;;5045321;28;20756;-57
2021/05/25 06:50:13;;;;;;;4.60;4.20;;;12.50;99.90;;;;;;5047430;28;20246;-58
2021/05/25 06:52:42;;;;;;;4.20;3.80;;;12.70;99.90;;;;;;5047499;28;20238;-58
2021/05/25 06:55:15;;;;;;;4.70;4.30;;;12.80;99.90;;;;;;5042291;28;20234;-57
2021/05/25 06:57:44;;;;;;;3.87;3.57;;;12.70;99.90;;;;;;5045711;28;20242;-57
2021/05/25 07:00:16;;;;;;;3.60;3.30;;;12.90;99.90;;;;;;5048917;28;20238;-57
2021/05/25 07:02:44;;;;;;;3.37;3.17;;;13.20;99.90;;;;;;5046721;28;20246;-58
2021/05/25 07:05:12;;;;;;;3.50;3.00;;;13.20;99.90;;;;;;5045048;28;20322;-58
2021/05/25 07:07:40;;;;;;;3.60;3.30;;;13.40;99.90;;;;;;5046780;28;20335;-55
2021/05/25 07:10:09;;;;;;;3.40;3.10;;;13.50;99.90;;;;;;5050375;28;20774;-57
2021/05/25 07:12:37;;;;;;;3.00;2.80;;;13.70;99.90;;;;;;5045737;28;20242;-58
2021/05/25 07:15:08;;;;;;;3.83;3.37;;;14.10;99.90;;;;;;5047030;28;20238;-58
2021/05/25 07:17:45;;;;;;;3.63;2.53;;;14.40;99.90;;;;;;5047625;28;20333;-57
2021/05/25 07:20:15;;;;;;;4.10;2.90;;;14.40;99.90;;;;;;5048444;28;20270;-58
2021/05/25 07:22:43;;;;;;;3.23;2.70;;;14.00;99.90;;;;;;5049063;28;20732;-58
2021/05/25 07:25:12;;;;;;;2.70;2.50;;;13.70;99.90;;;;;;5042465;28;20385;-58
2021/05/25 07:27:40;;;;;;;2.90;2.60;;;13.40;99.90;;;;;;5042888;28;20242;-57
2021/05/25 07:30:11;;;;;;;3.03;2.50;;;13.10;99.90;;;;;;5047279;28;20274;-58
2021/05/25 07:32:40;;;;;;;3.43;2.30;;;12.80;99.90;;;;;;5044099;28;20247;-57
2021/05/25 07:35:13;;;;;;;2.67;2.13;;;12.50;99.90;;;;;;5042881;28;20289;-58
2021/05/25 07:37:42;;;;;;;2.33;2.13;;;12.30;99.90;;;;;;5045405;28;20658;-58
2021/05/25 07:40:14;;;;;;;2.37;2.17;;;12.20;99.90;;;;;;5048764;28;20266;-59
2021/05/25 07:42:43;;;;;;;2.07;1.87;;;12.20;99.90;;;;;;5044507;28;20648;-58
2021/05/25 07:45:13;;;;;;;2.57;1.77;;;12.00;99.90;;;;;;5047583;28;21113;-58
2021/05/25 07:47:43;;;;;;;1.73;1.63;;;12.10;99.90;;;;;;5044528;28;20992;-57
2021/05/25 07:50:14;;;;;;;1.60;1.50;;;12.10;99.90;;;;;;5045261;28;20237;-59
2021/05/25 07:52:46;;;;;;;1.83;1.40;;;12.10;99.90;;;;;;5053048;28;20237;-58
2021/05/25 07:55:20;;;;;;;1.53;1.40;;;12.20;99.90;;;;;;5044841;28;20612;-59
2021/05/25 07:57:48;;;;;;;1.43;1.33;;;12.20;99.90;;;;;;5048301;28;20626;-58
2021/05/25 08:00:17;;;;;;;1.60;1.40;;;12.30;99.90;;;;;;5048005;28;20284;-58
2021/05/25 08:02:47;;;;;;;2.10;1.37;;;12.30;99.90;;;;;;5041725;28;20293;-58
2021/05/25 08:05:18;;;;;;;2.67;1.37;;;12.30;99.90;;;;;;5034976;28;20325;-58
2021/05/25 08:07:47;;;;;;;2.43;1.50;;;12.50;99.90;;;;;;5050710;28;20253;-59
2021/05/25 08:10:17;;;;;;;1.67;1.53;;;12.60;99.90;;;;;;5046614;28;20246;-58
2021/05/25 08:12:46;;;;;;;5.63;1.70;;;12.80;99.90;;;;;;5044667;28;20493;-58
2021/05/25 08:15:18;;;;;;;3.07;2.03;;;12.90;99.90;;;;;;5045150;28;20245;-58
2021/05/25 08:17:58;;;;;;;2.43;2.27;;;12.90;99.90;;;;;;5043756;28;20244;-58
2021/05/25 08:20:31;;;;;;;2.83;2.60;;;13.00;99.90;;;;;;5030973;28;20242;-58
2021/05/25 08:23:20;;;;;;;2.50;2.30;;;13.00;99.90;;;;;;5044142;28;20230;-59
2021/05/25 08:25:48;;;;;;;2.80;2.43;;;13.10;99.90;;;;;;5043362;28;20246;-59
2021/05/25 08:28:17;;;;;;;3.07;2.33;;;13.30;99.90;;;;;;5045115;28;20728;-58
2021/05/25 08:30:46;;;;;;;2.40;2.20;;;13.50;99.90;;;;;;5041473;28;20231;-58
2021/05/25 08:33:17;;;;;;;4.47;2.67;;;13.60;99.90;;;;;;5046835;28;20773;-58
2021/05/25 08:35:50;;;;;;;2.80;2.50;;;13.40;99.90;;;;;;5042850;28;20263;-59
2021/05/25 08:38:21;;;;;;;3.47;3.17;;;13.00;99.90;;;;;;5047297;28;20246;-58
2021/05/25 08:40:54;;;;;;;3.63;3.33;;;12.70;99.90;;;;;;5044654;28;20251;-59
2021/05/25 08:43:23;;;;;;;4.43;4.03;;;12.30;99.90;;;;;;5057625;28;20759;-59
2021/05/25 08:45:52;;;;;;;5.60;4.13;;;12.10;99.90;;;;;;5050691;28;20238;-60
2021/05/25 08:48:24;;;;;;;5.67;4.33;;;12.00;99.90;;;;;;5044253;28;20247;-58
2021/05/25 08:50:57;;;;;;;4.83;4.33;;;11.90;99.90;;;;;;5043359;28;20711;-60
2021/05/25 08:53:27;;;;;;;5.20;4.70;;;12.00;99.90;;;;;;5043250;28;20234;-59
2021/05/25 08:55:56;;;;;;;4.60;4.17;;;12.10;99.90;;;;;;5044664;28;20728;-58
2021/05/25 08:58:26;;;;;;;5.20;4.80;;;12.30;99.90;;;;;;5044590;28;20725;-59
2021/05/25 09:00:57;;;;;;;5.37;4.87;;;12.50;99.90;;;;;;5048192;28;20287;-59
2021/05/25 09:03:26;;;;;;;5.77;4.77;;;12.60;99.90;;;;;;5045730;28;20768;-59
2021/05/25 09:05:59;;;;;;;6.70;6.03;;;12.70;99.90;;;;;;5044971;28;20633;-59
2021/05/25 09:08:27;;;;;;;6.57;5.80;;;12.60;99.90;;;;;;5045794;28;20600;-59
2021/05/25 09:10:59;;;;;;;6.33;5.73;;;12.30;99.90;;;;;;5048852;28;20599;-58
2021/05/25 09:13:31;;;;;;;6.53;5.87;;;12.20;99.90;;;;;;5027924;28;20234;-58
2021/05/25 09:16:02;;;;;;;6.63;5.77;;;12.10;99.90;;;;;;5036638;28;20261;-59
2021/05/25 09:18:34;;;;;;;6.80;6.10;;;11.90;99.90;;;;;;5031165;28;20258;-60
2021/05/25 09:21:05;;;;;;;8.23;6.30;;;11.80;99.90;;;;;;5036717;28;20732;-58
2021/05/25 09:23:47;;;;;;;7.23;6.27;;;11.90;99.90;;;;;;5036200;28;20231;-59
2021/05/25 09:26:27;;;;;;;7.70;6.23;;;12.10;99.90;;;;;;5032086;28;20266;-59
2021/05/25 09:29:00;;;;;;;6.70;6.00;;;12.30;99.90;;;;;;5044264;28;20362;-59
2021/05/25 09:31:38;;;;;;;6.00;5.50;;;12.50;99.90;;;;;;5060162;28;20273;-59
2021/05/25 09:34:17;;;;;;;7.30;5.67;;;12.70;99.90;;;;;;5043224;28;20699;-58
2021/05/25 09:37:00;;;;;;;6.03;5.43;;;12.80;99.90;;;;;;5033880;28;20285;-59
2021/05/25 09:39:32;;;;;;;8.97;5.53;;;12.80;99.90;;;;;;5025676;28;20239;-58
2021/05/25 09:42:03;;;;;;;5.30;4.80;;;12.90;99.90;;;;;;5042420;28;20254;-58
2021/05/25 09:44:31;;;;;;;7.27;4.53;;;12.70;99.90;;;;;;5045075;28;20275;-58
2021/05/25 09:47:01;;;;;;;6.17;4.33;;;12.50;99.90;;;;;;5046029;28;20257;-58
2021/05/25 09:49:31;;;;;;;4.87;4.40;;;12.30;99.90;;;;;;5027429;28;20246;-58
2021/05/25 09:52:08;;;;;;;4.83;4.37;;;12.10;99.90;;;;;;5042249;28;20265;-59
2021/05/25 09:54:37;;;;;;;5.33;3.93;;;11.90;99.90;;;;;;5044122;28;20242;-58
2021/05/25 09:57:08;;;;;;;4.03;3.63;;;11.90;99.90;;;;;;5043194;28;20243;-59
2021/05/25 09:59:39;;;;;;;3.57;3.27;;;11.90;99.90;;;;;;5044081;28;20228;-59
2021/05/25 10:02:17;;;;;;;3.13;2.83;;;12.10;99.90;;;;;;5044800;28;20253;-58
2021/05/25 10:05:03;;;;;;;3.17;2.60;;;12.20;99.90;;;;;;5038497;28;20598;-59
2021/05/25 10:07:34;;;;;;;2.27;2.00;;;12.50;99.90;;;;;;5043178;28;20231;-58
2021/05/25 10:10:06;;;;;;;2.30;2.00;;;12.30;99.90;;;;;;5037752;28;20706;-59
2021/05/25 10:12:34;;;;;;;1.77;1.50;;;12.20;99.90;;;;;;5050506;28;20226;-59
2021/05/25 10:15:05;;;;;;;2.57;1.50;;;12.00;99.90;;;;;;5047069;28;20278;-58
2021/05/25 10:17:44;;;;;;;1.93;1.40;;;11.90;99.90;;;;;;5048505;28;20241;-58
2021/05/25 10:20:14;;;;;;;1.33;1.23;;;11.80;99.90;;;;;;5042519;28;20243;-59
2021/05/25 10:22:42;;;;;;;1.50;1.40;;;11.80;99.90;;;;;;5035876;28;20236;-58
2021/05/25 10:25:15;;;;;;;3.00;1.37;;;12.00;99.90;;;;;;5048666;28;20244;-59
2021/05/25 10:27:45;;;;;;;1.50;1.40;;;12.40;99.90;;;;;;5042892;28;20269;-59
2021/05/25 10:30:44;;;;;;;2.03;1.50;;;13.00;99.90;;;;;;5048620;28;20231;-59
2021/05/25 10:33:32;;;;;;;2.23;1.23;;;13.30;99.90;;;;;;5045105;28;20235;-59
2021/05/25 10:36:08;;;;;;;1.97;1.43;;;13.20;99.90;;;;;;5045508;28;20644;-58
2021/05/25 10:38:57;;;;;;;1.93;1.77;;;13.60;99.90;;;;;;5046246;28;20246;-58
2021/05/25 10:41:30;;;;;;;2.73;1.97;;;14.00;99.90;;;;;;5058542;28;20242;-59
2021/05/25 10:43:59;;;;;;;4.07;2.57;;;14.60;99.90;;;;;;5067317;28;20784;-59
2021/05/25 10:46:30;;;;;;;3.63;2.20;;;15.40;99.90;;;;;;5042045;28;20232;-60
2021/05/25 10:49:12;;;;;;;3.60;2.57;;;15.90;99.90;;;;;;5044062;28;20331;-59
2021/05/25 10:52:15;;;;;;;3.57;3.00;;;15.70;99.90;;;;;;5060833;28;20571;-58
2021/05/25 10:54:58;;;;;;;5.90;3.03;;;15.90;99.90;;;;;;5035694;28;20231;-60
2021/05/25 10:57:51;;;;;;;5.97;3.30;;;15.70;99.90;;;;;;5043303;28;20608;-58
2021/05/25 11:00:34;;;;;;;6.70;3.40;;;15.30;99.90;;;;;;5049487;28;20236;-59
2021/05/25 11:03:08;;;;;;;5.03;3.53;;;15.00;99.90;;;;;;5047095;28;20240;-58
2021/05/25 11:05:47;;;;;;;6.47;3.20;;;14.60;99.90;;;;;;5046043;28;20236;-59
2021/05/25 11:08:35;;;;;;;3.80;3.50;;;14.60;99.90;;;;;;5047190;28;20244;-59
2021/05/25 11:11:30;;;;;;;4.80;3.83;;;14.70;99.90;;;;;;5053437;28;20319;-59
2021/05/25 11:14:13;;;;;;;5.10;3.13;;;14.80;99.90;;;;;;5044600;28;20242;-59
2021/05/25 11:16:42;;;;;;;5.30;2.80;;;14.40;99.90;;;;;;5042096;28;20243;-59
2021/05/25 11:19:44;;;;;;;5.73;3.00;;;14.80;99.90;;;;;;5046724;28;20243;-60
2021/05/25 11:22:34;;;;;;;7.60;2.83;;;15.10;99.90;;;;;;5044909;28;20251;-58
2021/05/25 11:25:07;;;;;;;5.83;2.17;;;15.50;99.90;;;;;;5044428;28;20227;-58
2021/05/25 11:27:43;;;;;;;4.43;1.90;;;15.70;99.90;;;;;;5047068;28;20234;-59
2021/05/25 11:30:25;;;;;;;2.73;1.57;;;15.60;99.90;;;;;;5043975;28;20274;-60
2021/05/25 11:32:55;;;;;;;4.37;2.00;;;15.20;99.90;;;;;;5032015;28;20232;-58
2021/05/25 11:35:26;;;;;;;3.07;1.83;;;14.80;99.90;;;;;;5032272;28;20240;-59
2021/05/25 11:38:03;;;;;;;3.27;1.80;;;14.70;99.90;;;;;;5048782;28;20239;-60
2021/05/25 11:40:35;;;;;;;5.67;2.20;;;14.70;99.90;;;;;;5047191;28;20227;-58
2021/05/25 11:43:05;;;;;;;5.27;2.30;;;15.00;99.90;;;;;;5040537;28;20473;-59
2021/05/25 11:45:34;;;;;;;5.13;2.70;;;15.20;99.90;;;;;;5042962;28;20277;-58
2021/05/25 11:48:04;;;;;;;5.63;3.00;;;15.30;99.90;;;;;;5039282;28;20236;-58
2021/05/25 11:50:40;;;;;;;6.00;2.80;;;15.40;99.90;;;;;;5049979;28;20670;-59
2021/05/25 11:53:09;;;;;;;4.40;3.13;;;15.50;99.90;;;;;;5046778;28;20255;-58
2021/05/25 11:55:42;;;;;;;6.60;3.27;;;15.60;99.90;;;;;;5053420;28;20238;-60
2021/05/25 11:58:10;;;;;;;4.10;3.17;;;15.70;99.90;;;;;;5061115;28;20247;-58
2021/05/25 12:00:39;;;;;;;5.80;3.40;;;15.70;99.90;;;;;;5045474;28;20250;-59
2021/05/25 12:03:09;;;;;;;5.10;3.20;;;15.80;99.90;;;;;;5043729;28;20844;-60
2021/05/25 12:05:39;;;;;;;4.27;3.07;;;15.90;99.90;;;;;;5046992;28;20609;-58
2021/05/25 12:08:10;;;;;;;2.80;2.30;;;16.00;99.90;;;;;;5046496;28;20231;-58
2021/05/25 12:10:41;;;;;;;3.97;2.20;;;16.00;99.90;;;;;;5045054;28;20702;-58
2021/05/25 12:13:12;;;;;;;3.20;2.00;;;16.10;99.90;;;;;;5046184;28;20227;-59
2021/05/25 12:15:43;;;;;;;2.50;1.80;;;16.30;99.90;;;;;;5040149;28;20764;-59
2021/05/25 12:18:14;;;;;;;2.10;1.90;;;16.20;99.90;;;;;;5045748;28;20285;-58
2021/05/25 12:20:44;;;;;;;5.37;2.30;;;16.30;99.90;;;;;;5044638;28;21025;-58
2021/05/25 12:23:14;;;;;;;4.20;2.50;;;16.50;99.90;;;;;;5046802;28;20243;-59
2021/05/25 12:25:49;;;;;;;3.40;2.33;;;16.70;99.90;;;;;;5043535;28;20246;-59
2021/05/25 12:28:21;;;;;;;3.63;2.53;;;16.50;99.90;;;;;;5045846;28;20245;-59
2021/05/25 12:30:52;;;;;;;2.77;2.23;;;16.40;99.90;;;;;;5046222;28;20243;-59
2021/05/25 12:33:22;;;;;;;2.40;2.20;;;16.30;99.90;;;;;;5042661;28;20243;-58
2021/05/25 12:35:51;;;;;;;4.90;2.77;;;16.40;99.90;;;;;;5043501;28;20283;-59
2021/05/25 12:38:22;;;;;;;2.67;2.40;;;16.60;99.90;;;;;;5046351;28;20278;-58
2021/05/25 12:41:00;;;;;;;3.90;2.73;;;16.40;99.90;;;;;;5041769;28;20235;-59
2021/05/25 12:43:31;;;;;;;3.23;2.27;;;16.40;99.90;;;;;;5045124;28;20228;-59
2021/05/25 12:46:08;;;;;;;3.07;2.20;;;16.60;99.90;;;;;;5043136;28;20244;-58
2021/05/25 12:48:39;;;;;;;4.43;1.97;;;16.90;99.90;;;;;;5045516;28;20318;-59
2021/05/25 12:51:09;;;;;;;6.10;2.40;;;17.00;99.90;;;;;;5040174;28;20242;-58
2021/05/25 12:53:51;;;;;;;3.63;2.30;;;16.80;99.90;;;;;;5041668;28;20799;-58
2021/05/25 12:56:23;;;;;;;3.73;2.60;;;16.70;99.90;;;;;;5044226;28;20331;-58
2021/05/25 12:58:54;;;;;;;4.53;2.70;;;16.50;99.90;;;;;;5061279;28;20696;-58
2021/05/25 13:01:31;;;;;;;5.27;2.90;;;16.20;99.90;;;;;;5045707;28;20277;-59
2021/05/25 13:04:24;;;;;;;3.40;3.10;;;16.00;99.90;;;;;;5040239;28;20254;-58
2021/05/25 13:06:56;;;;;;;3.90;3.23;;;16.00;99.90;;;;;;5037869;28;20323;-58
2021/05/25 13:09:38;;;;;;;4.97;3.60;;;15.60;99.90;;;;;;5046557;28;20293;-60